首页
METAR-TAF:

METAR-TAF

机场 :

Oberpfaffenhofen, 德国

纬度: 48-05N, 经度: 011-17E, 海拔: 600米

当前天气观测

该预报发布于31分钟前的18:50 UTC
风速16节,风向南转西南
温度 3°C
湿度 87%
气压 991 hPa
能见度10公里或以上

METAR: EDMO 271850Z AUTO 21016KT 9999 // BKN024/// OVC031/// 03/01 Q0991

时间: 20:21 (19:21 UTC)

预报

该预报发布于1小时和37分钟前的17:44 UTC
预报有效从27日的 18点(UTC)到 28日的 03点(UTC)
风速10节,风向东南
能見度: 2500
散云层高于300英尺
多云层高于1000英尺
小雪
成为
从 27日的 18点(UTC)到 27日的 20点(UTC)
风速25节,风向西南,有时为40节阵风
能見度: 7000
多云层高于2000英尺
短暂存在
从 27日的 18点(UTC)到 28日的 01点(UTC)
风速30节,风向西转西南,有时为55节阵风
短暂存在
从 27日的 18点(UTC)到 28日的 03点(UTC)
能見度: 0700
多云层高于800英尺
多云层高于1200英尺, 塔状积云.
阵雪
几率 30% :
短暂存在
从 27日的 18点(UTC)到 27日的 20点(UTC)
多云层高于800英尺, 积雨云.
雷暴, 大雪
成为
从 28日的 01点(UTC)到 28日的 03点(UTC)
风速15节,风向西,有时为30节阵风

TAF: EDMO 271744Z 2718/2803 14010KT 2500 -SN SCT003 BKN010 BECMG 2718/2720 23025G40KT 7000 BKN020 TEMPO 2718/2801 25030G55KT TEMPO 2718/2803 0700 SHSN BKN008 BKN012TCU PROB30 TEMPO 2718/2720 +TSSN BKN008CB BECMG 2801/2803 28015G30KT

超过4000个机场的气象观测和天气预报(METAR&TAF报告)。

可查询的气象台以黄色和红色小点在地图上表示。

将鼠标移到小点上方,可查看气象台名称。

然后点击查看天气观测和预报。

如需切换地图:点击带黑十字的绿色按钮放大地图;点击带横线的绿色按钮缩小地图;或者点击绿色箭头查看邻近地区的地图。


METAR-TAF: